Terminal Aerodrome Forecast
Issued by NWS Melbourne, FL

Home | Current Version | Previous Version | Text Only | Print | Product List | Glossary On
Versions: 1 2 3 4 5 6 7 8 9 10 11 12 13 14 15 16 17
000
FTUS42 KMLB 190520
TAFVRB
TAF
KVRB 190520Z 1906/2006 05012KT P6SM VCSH SCT030 SCT250
     FM191500 04011KT P6SM VCSH SCT030 BKN040
     FM192000 04012G19KT P6SM VCSH SCT040 BKN100
     FM200000 04013KT P6SM FEW040 SCT250=

USA.gov is the U.S. government's official web portal to all federal, state and local government web resources and services.